| time (UTC) | temp F | wind direction | speed MPH | gust MPH | rain 1hr in | rain 24hr in | rain mn in | humidity % | barometer mb |
| 20260510215556 | 57 | 199 | 1.0 | 7.0 | 0.00 | 0.00 | 0.00 | 65 | 1014.6 |
| 20260510214516 | 58 | 209 | 2.0 | 7.0 | 0.00 | 0.00 | 0.00 | 65 | 1014.6 |
| 20260510213536 | 58 | 227 | 2.0 | 8.0 | 0.00 | 0.00 | 0.00 | 66 | 1014.5 |
| 20260510212516 | 58 | 229 | 4.0 | 11.0 | 0.00 | 0.00 | 0.00 | 66 | 1014.4 |
| 20260510211516 | 59 | 213 | 4.0 | 13.0 | 0.00 | 0.00 | 0.00 | 66 | 1014.3 |
| 20260510210516 | 58 | 243 | 3.0 | 12.0 | 0.00 | 0.00 | 0.00 | 67 | 1014.1 |
| 20260510205516 | 58 | 245 | 3.0 | 8.0 | 0.00 | 0.00 | 0.00 | 67 | 1013.9 |
| 20260510204516 | 58 | 210 | 4.0 | 8.0 | 0.00 | 0.00 | 0.00 | 67 | 1013.9 |
| 20260510203516 | 59 | 257 | 2.0 | 8.0 | 0.00 | 0.00 | 0.00 | 67 | 1013.8 |
| 20260510202516 | 59 | 220 | 4.0 | 8.0 | 0.00 | 0.01 | 0.00 | 66 | 1013.7 |
| 20260510201516 | 59 | 226 | 3.0 | 7.0 | 0.00 | 0.01 | 0.00 | 67 | 1013.7 |
| 20260510200516 | 59 | 195 | 5.0 | 9.0 | 0.00 | 0.01 | 0.00 | 69 | 1013.7 |
| 20260510195516 | 58 | 268 | 2.0 | 4.0 | 0.00 | 0.02 | 0.00 | 72 | 1013.8 |
| 20260510194516 | 57 | 346 | 2.0 | 6.0 | 0.00 | 0.03 | 0.00 | 74 | 1014.0 |
| 20260510193516 | 57 | 220 | 1.0 | 4.0 | 0.00 | 0.04 | 0.00 | 76 | 1014.1 |
| 20260510192536 | 57 | 197 | 3.0 | 8.0 | 0.00 | 0.05 | 0.00 | 76 | 1014.1 |
| 20260510191516 | 56 | 231 | 4.0 | 8.0 | 0.00 | 0.05 | 0.00 | 77 | 1014.1 |
| 20260510190537 | 56 | 244 | 3.0 | 8.0 | 0.00 | 0.06 | 0.00 | 78 | 1014.2 |
| 20260510185516 | 55 | 198 | 2.0 | 5.0 | 0.00 | 0.07 | 0.00 | 77 | 1014.2 |
| 20260510184516 | 56 | 204 | 4.0 | 10.0 | 0.00 | 0.07 | 0.00 | 75 | 1014.3 |
| 20260510183517 | 57 | 196 | 5.0 | 15.0 | 0.00 | 0.08 | 0.00 | 72 | 1014.1 |
| 20260510182516 | 59 | 232 | 3.0 | 10.0 | 0.00 | 0.09 | 0.00 | 70 | 1013.9 |
| 20260510181536 | 59 | 356 | 3.0 | 5.0 | 0.00 | 0.10 | 0.00 | 70 | 1013.8 |
| 20260510180516 | 59 | 196 | 2.0 | 10.0 | 0.00 | 0.12 | 0.00 | 70 | 1013.6 |
| 20260510175516 | 60 | 70 | 3.0 | 11.0 | 0.00 | 0.13 | 0.00 | 67 | 1013.6 |
| 20260510174536 | 61 | 270 | 2.0 | 9.0 | 0.00 | 0.15 | 0.00 | 67 | 1013.6 |
| 20260510173536 | 61 | 219 | 6.0 | 11.0 | 0.00 | 0.16 | 0.00 | 66 | 1013.6 |
| 20260510172516 | 61 | 204 | 4.0 | 9.0 | 0.00 | 0.17 | 0.00 | 66 | 1013.7 |
| 20260510171516 | 60 | 239 | 4.0 | 10.0 | 0.00 | 0.19 | 0.00 | 70 | 1013.7 |
| 20260510170516 | 59 | 215 | 4.0 | 10.0 | 0.00 | 0.20 | 0.00 | 70 | 1013.7 |
| 20260510165516 | 59 | 227 | 4.0 | 7.0 | 0.00 | 0.22 | 0.00 | 72 | 1013.5 |
| 20260510164516 | 59 | 2 | 3.0 | 10.0 | 0.00 | 0.23 | 0.00 | 72 | 1013.7 |
| 20260510163516 | 59 | 262 | 2.0 | 6.0 | 0.00 | 0.24 | 0.00 | 70 | 1013.6 |
| 20260510162516 | 59 | 208 | 5.0 | 11.0 | 0.00 | 0.25 | 0.00 | 72 | 1013.6 |
| 20260510161536 | 57 | 186 | 5.0 | 10.0 | 0.00 | 0.26 | 0.00 | 75 | 1013.8 |
| 20260510160516 | 57 | 239 | 5.0 | 12.0 | 0.00 | 0.28 | 0.00 | 74 | 1013.9 |
| 20260510155516 | 57 | 251 | 3.0 | 9.0 | 0.00 | 0.29 | 0.00 | 75 | 1013.8 |
| 20260510154516 | 57 | 240 | 6.0 | 13.0 | 0.00 | 0.29 | 0.00 | 76 | 1013.7 |
| 20260510153516 | 56 | 222 | 2.0 | 8.0 | 0.00 | 0.30 | 0.00 | 79 | 1013.6 |
| 20260510152516 | 56 | 200 | 4.0 | 7.0 | 0.00 | 0.31 | 0.00 | 78 | 1013.6 |
| 20260510151516 | 56 | 207 | 4.0 | 10.0 | 0.00 | 0.32 | 0.00 | 77 | 1013.5 |
| 20260510150516 | 56 | 205 | 2.0 | 7.0 | 0.00 | 0.34 | 0.00 | 79 | 1013.5 |
| 20260510145556 | 56 | 230 | 4.0 | 9.0 | 0.00 | 0.35 | 0.00 | 79 | 1013.4 |
| 20260510144516 | 55 | 243 | 1.0 | 8.0 | 0.00 | 0.35 | 0.00 | 82 | 1013.3 |
| 20260510143516 | 55 | 243 | 4.0 | 8.0 | 0.00 | 0.36 | 0.00 | 82 | 1013.3 |
| 20260510142537 | 54 | 274 | 4.0 | 10.0 | 0.00 | 0.36 | 0.00 | 82 | 1013.1 |
| 20260510141516 | 53 | 248 | 2.0 | 6.0 | 0.00 | 0.37 | 0.00 | 84 | 1013.1 |
| 20260510140516 | 53 | 188 | 2.0 | 7.0 | 0.00 | 0.38 | 0.00 | 85 | 1013.0 |
| 20260510135516 | 52 | 221 | 2.0 | 7.0 | 0.00 | 0.39 | 0.00 | 86 | 1012.9 |
| 20260510134516 | 53 | 236 | 2.0 | 8.0 | 0.00 | 0.40 | 0.00 | 85 | 1012.9 |
| 20260510133516 | 52 | 219 | 3.0 | 9.0 | 0.00 | 0.41 | 0.00 | 85 | 1012.9 |
| 20260510132516 | 52 | 211 | 3.0 | 9.0 | 0.00 | 0.42 | 0.00 | 86 | 1012.9 |
| 20260510131516 | 52 | 258 | 1.0 | 5.0 | 0.00 | 0.43 | 0.00 | 87 | 1012.9 |
| 20260510130516 | 52 | 306 | 1.0 | 3.0 | 0.00 | 0.43 | 0.00 | 87 | 1012.9 |
| 20260510125516 | 52 | 202 | 2.0 | 4.0 | 0.00 | 0.44 | 0.00 | 87 | 1012.9 |
| 20260510124516 | 52 | 243 | 3.0 | 7.0 | 0.00 | 0.44 | 0.00 | 86 | 1012.8 |
| 20260510123516 | 52 | 212 | 2.0 | 6.0 | 0.00 | 0.44 | 0.00 | 88 | 1012.7 |
| 20260510122536 | 51 | 238 | 2.0 | 4.0 | 0.00 | 0.44 | 0.00 | 88 | 1012.7 |
| 20260510121516 | 50 | 208 | 1.0 | 4.0 | 0.00 | 0.44 | 0.00 | 89 | 1012.6 |
| 20260510120516 | 50 | 242 | 2.0 | 3.0 | 0.00 | 0.44 | 0.00 | 90 | 1012.4 |
| 20260510115516 | 49 | 219 | 1.0 | 3.0 | 0.00 | 0.44 | 0.00 | 91 | 1012.2 |
| 20260510114536 | 49 | 196 | 1.0 | 2.0 | 0.00 | 0.44 | 0.00 | 92 | 1012.1 |
| 20260510113517 | 48 | 247 | 1.0 | 3.0 | 0.00 | 0.44 | 0.00 | 94 | 1012.0 |
| 20260510112536 | 47 | 219 | 0.0 | 1.0 | 0.00 | 0.44 | 0.00 | 95 | 1011.9 |
| 20260510111536 | 47 | 0.0 | 2.0 | 0.00 | 0.44 | 0.00 | 95 | 1012.0 | |
| 20260510110516 | 46 | 265 | 0.0 | 1.0 | 0.00 | 0.44 | 0.00 | 95 | 1011.9 |
| 20260510105516 | 46 | 227 | 1.0 | 4.0 | 0.00 | 0.45 | 0.00 | 94 | 1011.7 |
| 20260510104516 | 46 | 282 | 0.0 | 2.0 | 0.00 | 0.45 | 0.00 | 94 | 1011.7 |
| 20260510103516 | 46 | 257 | 0.0 | 2.0 | 0.00 | 0.46 | 0.00 | 94 | 1011.6 |
| 20260510102536 | 46 | 0.0 | 0.0 | 0.00 | 0.47 | 0.00 | 94 | 1011.7 | |
| 20260510101516 | 46 | 257 | 0.0 | 1.0 | 0.00 | 0.48 | 0.00 | 94 | 1011.6 |
| 20260510100516 | 46 | 264 | 0.0 | 2.0 | 0.00 | 0.49 | 0.00 | 94 | 1011.5 |
| 20260510095516 | 45 | 316 | 0.0 | 2.0 | 0.00 | 0.50 | 0.00 | 94 | 1011.3 |
| 20260510094516 | 46 | 355 | 0.0 | 2.0 | 0.00 | 0.51 | 0.00 | 94 | 1011.0 |
| 20260510093517 | 46 | 328 | 0.0 | 2.0 | 0.00 | 0.52 | 0.00 | 94 | 1010.9 |
| 20260510092556 | 46 | 327 | 0.0 | 2.0 | 0.00 | 0.54 | 0.00 | 95 | 1010.8 |
| 20260510091536 | 45 | 337 | 0.0 | 2.0 | 0.00 | 0.55 | 0.00 | 94 | 1010.5 |
| 20260510090536 | 45 | 338 | 0.0 | 2.0 | 0.00 | 0.56 | 0.00 | 94 | 1010.5 |
| 20260510085516 | 45 | 338 | 0.0 | 1.0 | 0.00 | 0.58 | 0.00 | 93 | 1010.6 |
| 20260510084516 | 45 | 338 | 0.0 | 2.0 | 0.00 | 0.60 | 0.00 | 93 | 1010.5 |
| 20260510083516 | 46 | 334 | 0.0 | 2.0 | 0.00 | 0.62 | 0.00 | 93 | 1010.4 |
| 20260510082536 | 46 | 306 | 1.0 | 2.0 | 0.00 | 0.66 | 0.00 | 93 | 1010.2 |
| 20260510081516 | 47 | 290 | 0.0 | 1.0 | 0.00 | 0.67 | 0.00 | 93 | 1010.1 |
| 20260510080516 | 47 | 0.0 | 0.0 | 0.00 | 0.70 | 0.00 | 94 | 1010.1 | |
| 20260510075516 | 47 | 290 | 0.0 | 2.0 | 0.00 | 0.72 | 0.00 | 94 | 1010.2 |
| 20260510074516 | 47 | 355 | 1.0 | 4.0 | 0.00 | 0.74 | 0.00 | 95 | 1010.1 |
| 20260510073516 | 47 | 202 | 1.0 | 3.0 | 0.00 | 0.77 | 0.00 | 94 | 1010.4 |
| 20260510072516 | 47 | 202 | 0.0 | 2.0 | 0.00 | 0.80 | 0.00 | 94 | 1010.8 |
| 20260510071536 | 47 | 202 | 0.0 | 1.0 | 0.00 | 0.84 | 0.00 | 94 | 1010.9 |
| 20260510070516 | 47 | 0.0 | 0.0 | 0.00 | 0.87 | 0.00 | 94 | 1011.0 | |
| 20260510065516 | 47 | 202 | 1.0 | 2.0 | 0.00 | 0.89 | 0.00 | 94 | 1011.1 |
| 20260510064516 | 47 | 202 | 0.0 | 1.0 | 0.00 | 0.91 | 0.00 | 94 | 1011.3 |
| 20260510063516 | 47 | 202 | 0.0 | 1.0 | 0.00 | 0.94 | 0.00 | 94 | 1011.4 |
| 20260510062516 | 48 | 202 | 0.0 | 1.0 | 0.00 | 0.94 | 0.00 | 94 | 1011.4 |
| 20260510061516 | 48 | 219 | 1.0 | 3.0 | 0.00 | 0.94 | 0.00 | 95 | 1011.6 |
| 20260510060516 | 47 | 229 | 1.0 | 7.0 | 0.00 | 0.94 | 0.00 | 95 | 1011.6 |
| 20260510055516 | 47 | 245 | 1.0 | 3.0 | 0.00 | 0.94 | 0.00 | 94 | 1011.6 |
| 20260510054516 | 46 | 347 | 1.0 | 3.0 | 0.00 | 0.94 | 0.00 | 94 | 1011.4 |
| 20260510053536 | 46 | 308 | 1.0 | 2.0 | 0.00 | 0.94 | 0.00 | 94 | 1011.2 |
| 20260510052516 | 47 | 224 | 1.0 | 2.0 | 0.00 | 0.94 | 0.00 | 93 | 1010.9 |
| 20260510051516 | 47 | 224 | 0.0 | 1.0 | 0.00 | 0.94 | 0.00 | 93 | 1011.0 |
| 20260510050516 | 47 | 203 | 0.0 | 2.0 | 0.00 | 0.94 | 0.00 | 93 | 1011.0 |
| 20260510045516 | 47 | 193 | 0.0 | 2.0 | 0.00 | 0.94 | 0.00 | 93 | 1011.0 |
| 20260510044536 | 47 | 179 | 1.0 | 5.0 | 0.00 | 0.94 | 0.00 | 93 | 1011.0 |
| 20260510043516 | 48 | 179 | 1.0 | 5.0 | 0.00 | 0.94 | 0.00 | 92 | 1011.1 |
| 20260510042516 | 48 | 226 | 2.0 | 9.0 | 0.00 | 0.94 | 0.00 | 92 | 1010.9 |
| 20260510041516 | 48 | 239 | 3.0 | 6.0 | 0.00 | 0.94 | 0.00 | 92 | 1010.6 |
| 20260510040536 | 48 | 231 | 3.0 | 8.0 | 0.00 | 0.94 | 0.00 | 92 | 1010.6 |
| 20260510035516 | 48 | 219 | 2.0 | 4.0 | 0.00 | 0.94 | 0.94 | 93 | 1010.6 |
| 20260510034516 | 48 | 239 | 2.0 | 5.0 | 0.00 | 0.94 | 0.94 | 93 | 1010.5 |
| 20260510033516 | 48 | 212 | 3.0 | 10.0 | 0.00 | 0.94 | 0.94 | 93 | 1010.5 |
| 20260510032516 | 48 | 185 | 3.0 | 7.0 | 0.00 | 0.94 | 0.94 | 94 | 1010.5 |
| 20260510031516 | 48 | 228 | 2.0 | 5.0 | 0.00 | 0.94 | 0.94 | 94 | 1010.6 |
| 20260510030516 | 48 | 211 | 3.0 | 6.0 | 0.00 | 0.94 | 0.94 | 93 | 1010.6 |
| 20260510025516 | 48 | 232 | 3.0 | 9.0 | 0.00 | 0.94 | 0.94 | 93 | 1010.6 |
| 20260510024516 | 48 | 216 | 1.0 | 4.0 | 0.00 | 0.94 | 0.94 | 93 | 1010.4 |
| 20260510023516 | 48 | 217 | 1.0 | 2.0 | 0.00 | 0.94 | 0.94 | 92 | 1010.3 |
| 20260510022536 | 48 | 217 | 0.0 | 5.0 | 0.00 | 0.94 | 0.94 | 92 | 1010.3 |
| 20260510021516 | 48 | 224 | 1.0 | 5.0 | 0.00 | 0.94 | 0.94 | 92 | 1010.2 |
| 20260510020536 | 49 | 253 | 1.0 | 6.0 | 0.00 | 0.94 | 0.94 | 91 | 1010.3 |
| 20260510015536 | 49 | 227 | 1.0 | 5.0 | 0.00 | 0.94 | 0.94 | 92 | 1010.2 |
| 20260510014516 | 48 | 223 | 1.0 | 5.0 | 0.00 | 0.94 | 0.94 | 92 | 1010.0 |
| 20260510013516 | 49 | 223 | 1.0 | 3.0 | 0.00 | 0.94 | 0.94 | 91 | 1010.2 |
| 20260510012516 | 49 | 155 | 1.0 | 4.0 | 0.00 | 0.94 | 0.94 | 91 | 1010.1 |
| 20260510011516 | 49 | 219 | 1.0 | 7.0 | 0.00 | 0.94 | 0.94 | 91 | 1010.1 |
| 20260510010516 | 49 | 176 | 2.0 | 5.0 | 0.00 | 0.94 | 0.94 | 92 | 1010.1 |
| 20260510005515 | 49 | 198 | 2.0 | 6.0 | 0.00 | 0.94 | 0.94 | 91 | 1010.1 |
| 20260510004514 | 49 | 179 | 1.0 | 6.0 | 0.00 | 0.94 | 0.94 | 91 | 1010.0 |
| 20260510003515 | 49 | 199 | 2.0 | 5.0 | 0.00 | 0.94 | 0.94 | 91 | 1009.9 |
| 20260510002514 | 49 | 166 | 2.0 | 6.0 | 0.00 | 0.94 | 0.94 | 91 | 1009.6 |
| 20260510001514 | 49 | 204 | 3.0 | 7.0 | 0.00 | 0.94 | 0.94 | 91 | 1009.5 |
| 20260510000554 | 49 | 246 | 0.0 | 5.0 | 0.00 | 0.94 | 0.94 | 90 | 1009.5 |
| 20260509235515 | 49 | 185 | 1.0 | 7.0 | 0.00 | 0.94 | 0.94 | 90 | 1009.4 |
| 20260509234514 | 49 | 226 | 1.0 | 4.0 | 0.00 | 0.94 | 0.94 | 90 | 1009.3 |
| 20260509233534 | 49 | 185 | 2.0 | 5.0 | 0.00 | 0.94 | 0.94 | 90 | 1009.3 |
| 20260509232514 | 49 | 203 | 2.0 | 5.0 | 0.00 | 0.94 | 0.94 | 90 | 1009.1 |
| 20260509231555 | 49 | 204 | 2.0 | 6.0 | 0.00 | 0.94 | 0.94 | 90 | 1009.0 |
| 20260509230515 | 49 | 199 | 1.0 | 4.0 | 0.00 | 0.94 | 0.94 | 90 | 1008.9 |
| 20260509225515 | 50 | 188 | 1.0 | 4.0 | 0.00 | 0.94 | 0.94 | 90 | 1008.9 |
| 20260509224535 | 50 | 193 | 1.0 | 6.0 | 0.00 | 0.94 | 0.94 | 89 | 1008.8 |
| 20260509223515 | 50 | 200 | 2.0 | 7.0 | 0.00 | 0.94 | 0.94 | 89 | 1008.7 |
| 20260509222515 | 50 | 203 | 3.0 | 5.0 | 0.00 | 0.94 | 0.94 | 90 | 1008.8 |
| 20260509221514 | 50 | 178 | 2.0 | 8.0 | 0.00 | 0.94 | 0.94 | 90 | 1008.9 |
| 20260509220514 | 50 | 195 | 1.0 | 3.0 | 0.00 | 0.94 | 0.94 | 91 | 1009.1 |